createdAt,value
2022-09-10T00:00:27.230Z,7.37
2022-09-10T00:03:00.779Z,6.45
2022-09-10T00:05:40.375Z,5.37
2022-09-10T00:08:14.576Z,6.45
2022-09-10T00:10:49.997Z,6.67
2022-09-10T00:13:25.167Z,6.33
2022-09-10T00:15:59.845Z,6.83
2022-09-10T00:18:34.890Z,7.30
2022-09-10T00:21:10.946Z,7.47
2022-09-10T00:23:45.781Z,6.90
2022-09-10T00:26:22.709Z,7.03
2022-09-10T00:28:59.804Z,6.60
2022-09-10T00:31:35.543Z,7.45
2022-09-10T00:34:10.150Z,8.30
2022-09-10T00:36:47.098Z,8.85
2022-09-10T00:39:21.388Z,8.80
2022-09-10T00:41:57.877Z,7.97
2022-09-10T00:45:13.799Z,8.70
2022-09-10T00:47:48.133Z,8.05
2022-09-10T00:50:25.811Z,7.17
2022-09-10T00:53:02.426Z,8.50
2022-09-10T00:55:38.900Z,8.55
2022-09-10T00:58:15.921Z,8.83
2022-09-10T01:00:52.934Z,8.33
2022-09-10T01:03:30.560Z,10.38
2022-09-10T01:06:07.108Z,9.73
2022-09-10T01:08:42.372Z,9.55
2022-09-10T01:11:34.551Z,10.05
2022-09-10T01:14:33.171Z,9.70
2022-09-10T01:17:11.631Z,12.78
2022-09-10T01:20:21.024Z,12.80
2022-09-10T01:23:09.244Z,12.60
2022-09-10T01:25:48.865Z,10.85
2022-09-10T01:28:27.665Z,13.25
2022-09-10T01:31:06.313Z,12.18
2022-09-10T01:33:44.815Z,10.93
2022-09-10T01:36:24.070Z,12.23
2022-09-10T01:38:59.493Z,11.70
2022-09-10T01:41:34.604Z,10.53
2022-09-10T01:44:33.076Z,10.65
2022-09-10T01:47:12.318Z,9.30
2022-09-10T01:49:54.463Z,9.30
2022-09-10T01:52:34.280Z,10.45
2022-09-10T01:55:15.048Z,8.85
2022-09-10T01:57:56.315Z,8.80
2022-09-10T02:00:33.543Z,7.87
2022-09-10T02:03:11.524Z,7.80
2022-09-10T02:05:48.958Z,7.47
2022-09-10T02:08:26.428Z,8.35
2022-09-10T02:11:03.582Z,7.80
2022-09-10T02:13:39.275Z,7.97
2022-09-10T02:16:21.734Z,9.18
2022-09-10T02:18:56.782Z,9.30
2022-09-10T02:21:32.256Z,9.53
2022-09-10T02:24:10.196Z,8.30
2022-09-10T02:26:46.817Z,9.63
2022-09-10T02:29:20.668Z,8.85
2022-09-10T02:31:54.277Z,8.43
2022-09-10T02:34:27.985Z,10.15
2022-09-10T02:37:03.334Z,9.80
2022-09-10T02:39:36.994Z,9.43
2022-09-10T02:42:10.723Z,8.15
2022-09-10T02:44:44.642Z,9.28
2022-09-10T02:47:18.399Z,9.63
2022-09-10T02:49:51.881Z,9.45
2022-09-10T02:52:25.986Z,9.65
2022-09-10T02:55:00.240Z,9.55
2022-09-10T02:57:34.464Z,10.03
2022-09-10T03:00:09.633Z,9.65
2022-09-10T03:02:43.429Z,8.60
2022-09-10T03:05:18.379Z,11.20
2022-09-10T03:07:52.301Z,12.63
2022-09-10T03:10:26.694Z,13.90
2022-09-10T03:13:00.891Z,13.15
2022-09-10T03:15:34.492Z,12.63
2022-09-10T03:18:09.390Z,11.85
2022-09-10T03:20:43.048Z,13.98
2022-09-10T03:23:16.390Z,14.40
2022-09-10T03:25:50.456Z,14.93
2022-09-10T03:28:26.540Z,13.10
2022-09-10T03:31:00.137Z,12.00
2022-09-10T03:33:34.338Z,9.20
2022-09-10T03:36:09.074Z,8.13
2022-09-10T03:38:42.702Z,8.05
2022-09-10T03:41:16.414Z,8.25
2022-09-10T03:43:50.477Z,7.20
2022-09-10T03:46:26.884Z,6.53
2022-09-10T03:49:02.594Z,6.87
2022-09-10T03:51:36.364Z,6.55
2022-09-10T03:54:10.646Z,6.53
2022-09-10T03:56:45.240Z,6.50
2022-09-10T03:59:19.211Z,6.58
2022-09-10T04:01:52.842Z,6.28
2022-09-10T04:04:26.491Z,5.67
2022-09-10T04:07:01.198Z,5.58
2022-09-10T04:09:35.071Z,5.58
2022-09-10T04:12:09.911Z,5.65
2022-09-10T04:14:45.128Z,6.58
2022-09-10T04:17:20.823Z,7.50
2022-09-10T04:19:55.064Z,6.33
2022-09-10T04:22:29.056Z,6.72
2022-09-10T04:25:04.623Z,6.83
2022-09-10T04:27:38.281Z,8.00
2022-09-10T04:30:13.862Z,8.48
2022-09-10T04:32:47.668Z,6.72
2022-09-10T04:35:23.281Z,7.70
2022-09-10T04:37:56.902Z,7.28
2022-09-10T04:40:30.864Z,9.50
2022-09-10T04:43:05.059Z,8.80
2022-09-10T04:45:40.990Z,8.80
2022-09-10T04:48:14.554Z,9.38
2022-09-10T04:51:14.661Z,8.50
2022-09-10T04:56:01.014Z,8.28
2022-09-10T04:58:39.045Z,8.28
2022-09-10T05:01:12.714Z,9.25
2022-09-10T05:03:47.503Z,8.15
2022-09-10T05:06:21.310Z,8.70
2022-09-10T05:08:56.063Z,7.65
2022-09-10T05:11:31.554Z,8.10
2022-09-10T05:14:05.893Z,8.53
2022-09-10T05:16:39.854Z,8.25
2022-09-10T05:19:15.767Z,7.83
2022-09-10T05:21:51.223Z,7.85
2022-09-10T05:24:24.957Z,6.22
2022-09-10T05:26:59.776Z,7.25
2022-09-10T05:29:33.372Z,8.85
2022-09-10T05:32:09.229Z,4.62
2022-09-10T05:34:43.142Z,4.30
2022-09-10T05:37:16.574Z,3.05
2022-09-10T05:39:50.139Z,3.80
2022-09-10T05:42:24.036Z,2.42
2022-09-10T05:44:57.848Z,3.60
2022-09-10T05:47:34.932Z,3.27
2022-09-10T05:50:11.405Z,2.92
2022-09-10T05:52:44.890Z,3.70
2022-09-10T05:55:18.761Z,3.45
2022-09-10T05:57:53.123Z,2.90
2022-09-10T06:00:26.944Z,2.40
2022-09-10T06:03:02.632Z,2.60
2022-09-10T06:05:41.023Z,2.70
2022-09-10T06:08:14.523Z,2.12
2022-09-10T06:10:58.912Z,2.25
2022-09-10T06:13:35.244Z,1.67
2022-09-10T06:16:08.970Z,2.47
2022-09-10T06:18:44.886Z,2.37
2022-09-10T06:21:25.017Z,1.72
2022-09-10T06:23:57.498Z,2.30
2022-09-10T06:26:33.373Z,2.50
2022-09-10T06:29:08.744Z,2.55
2022-09-10T06:31:44.200Z,2.22
2022-09-10T06:34:19.197Z,1.98
2022-09-10T06:36:53.130Z,2.08
2022-09-10T06:39:28.858Z,1.70
2022-09-10T06:42:04.133Z,2.37
2022-09-10T06:44:51.412Z,2.20
2022-09-10T06:50:11.944Z,1.82
2022-09-10T06:52:48.905Z,1.70
2022-09-10T06:55:24.030Z,1.90
2022-09-10T06:57:57.689Z,2.02
2022-09-10T07:00:32.450Z,2.17
2022-09-10T07:03:07.188Z,1.70
2022-09-10T07:05:40.750Z,1.80
2022-09-10T07:08:16.216Z,2.27
2022-09-10T07:10:50.578Z,1.47
2022-09-10T07:13:25.935Z,1.70
2022-09-10T07:16:00.625Z,1.60
2022-09-10T07:18:34.584Z,1.60
2022-09-10T07:21:14.240Z,1.55
2022-09-10T07:23:53.790Z,1.67
2022-09-10T07:26:27.526Z,1.47
2022-09-10T07:29:02.553Z,1.82
2022-09-10T07:31:38.394Z,1.10
2022-09-10T07:34:14.250Z,1.98
2022-09-10T07:36:48.139Z,1.52
2022-09-10T07:39:25.544Z,1.32
2022-09-10T07:41:57.381Z,1.30
2022-09-10T07:44:32.588Z,1.50
2022-09-10T07:47:07.886Z,1.27
2022-09-10T07:49:41.362Z,1.40
2022-09-10T07:52:15.392Z,1.40
2022-09-10T07:54:50.379Z,1.27
2022-09-10T07:57:25.488Z,1.10
2022-09-10T08:00:00.794Z,1.10
2022-09-10T08:02:36.102Z,1.27
2022-09-10T08:05:12.550Z,1.45
2022-09-10T08:07:46.764Z,1.27
2022-09-10T08:10:20.963Z,1.20
2022-09-10T08:12:54.929Z,1.15
2022-09-10T08:15:28.980Z,1.22
2022-09-10T08:18:03.841Z,1.30
2022-09-10T08:20:39.364Z,1.07
2022-09-10T08:23:13.944Z,1.02
2022-09-10T08:25:53.081Z,1.20
2022-09-10T08:28:27.416Z,1.27
2022-09-10T08:31:04.397Z,1.40
2022-09-10T08:33:39.610Z,1.60
2022-09-10T08:36:15.094Z,2.12
2022-09-10T08:38:49.441Z,1.50
2022-09-10T08:41:29.893Z,1.30
2022-09-10T08:44:07.517Z,1.40
2022-09-10T08:46:44.570Z,1.40
2022-09-10T08:49:21.166Z,1.20
2022-09-10T08:51:57.713Z,1.60
2022-09-10T08:54:34.229Z,1.00
2022-09-10T08:57:11.495Z,1.27
2022-09-10T08:59:50.284Z,0.90
2022-09-10T09:05:02.802Z,1.10
2022-09-10T09:07:39.482Z,1.32
2022-09-10T09:10:31.567Z,1.75
2022-09-10T09:13:18.128Z,1.42
2022-09-10T09:15:55.094Z,0.98
2022-09-10T09:18:31.550Z,0.72
2022-09-10T09:21:08.180Z,1.07
2022-09-10T09:23:57.054Z,0.82
2022-09-10T09:26:19.986Z,1.00
2022-09-10T09:28:58.114Z,1.12
2022-09-10T09:34:10.448Z,1.00
2022-09-10T09:39:25.776Z,1.37
2022-09-10T09:42:04.486Z,0.80
2022-09-10T09:44:41.299Z,1.10
2022-09-10T09:47:15.198Z,1.17
2022-09-10T09:49:49.067Z,1.20
2022-09-10T09:52:25.157Z,1.00
2022-09-10T09:55:14.213Z,1.30
2022-09-10T09:57:36.698Z,1.15
2022-09-10T10:00:36.679Z,1.50
2022-09-10T10:03:16.535Z,1.50
2022-09-10T10:05:50.768Z,1.30
2022-09-10T10:08:31.698Z,1.52
2022-09-10T10:11:06.649Z,1.00
2022-09-10T10:13:41.978Z,1.20
2022-09-10T10:16:21.274Z,0.90
2022-09-10T10:18:55.016Z,1.05
2022-09-10T10:21:32.873Z,1.20
2022-09-10T10:24:06.850Z,1.35
2022-09-10T10:26:43.088Z,1.70
2022-09-10T10:29:22.221Z,1.25
2022-09-10T10:31:57.627Z,1.47
2022-09-10T10:34:54.119Z,1.65
2022-09-10T10:37:33.686Z,1.15
2022-09-10T10:40:16.717Z,1.75
2022-09-10T10:42:54.415Z,1.27
2022-09-10T10:45:38.849Z,1.47
2022-09-10T10:48:15.819Z,1.05
2022-09-10T10:50:55.306Z,1.15
2022-09-10T10:53:45.474Z,2.00
2022-09-10T10:56:21.819Z,1.40
2022-09-10T10:59:04.620Z,1.47
2022-09-10T11:01:42.976Z,1.30
2022-09-10T11:04:24.260Z,1.82
2022-09-10T11:07:01.734Z,1.22
2022-09-10T11:09:41.104Z,1.22
2022-09-10T11:12:19.361Z,1.90
2022-09-10T11:14:58.088Z,1.77
2022-09-10T11:17:35.186Z,1.47
2022-09-10T11:20:29.668Z,1.40
2022-09-10T11:22:51.251Z,1.50
2022-09-10T11:25:28.119Z,1.75
2022-09-10T11:28:04.721Z,1.45
2022-09-10T11:30:39.971Z,1.55
2022-09-10T11:33:18.398Z,1.75
2022-09-10T11:35:55.829Z,1.47
2022-09-10T11:38:33.001Z,1.42
2022-09-10T11:41:11.260Z,1.35
2022-09-10T11:43:48.220Z,1.30
2022-09-10T11:46:24.625Z,1.20
2022-09-10T11:49:02.991Z,1.10
2022-09-10T11:51:38.867Z,1.22
2022-09-10T11:54:16.322Z,1.37
2022-09-10T11:56:55.705Z,1.32
2022-09-10T11:59:44.010Z,1.47
2022-09-10T12:02:37.551Z,1.65
2022-09-10T12:05:15.978Z,1.50
2022-09-10T12:07:53.973Z,1.72
2022-09-10T12:10:32.721Z,1.57
2022-09-10T12:13:11.726Z,1.70
2022-09-10T12:15:51.999Z,1.47
2022-09-10T12:18:29.068Z,1.67
2022-09-10T12:21:05.362Z,1.10
2022-09-10T12:23:41.292Z,1.55
2022-09-10T12:26:18.722Z,1.52
2022-09-10T12:29:04.361Z,1.70
2022-09-10T12:32:13.880Z,1.27
2022-09-10T12:34:49.796Z,1.60
2022-09-10T12:37:28.819Z,1.70
2022-09-10T12:40:38.380Z,1.75
2022-09-10T12:43:47.574Z,1.65
2022-09-10T12:46:23.412Z,1.47
2022-09-10T12:49:13.526Z,1.90
2022-09-10T12:51:56.861Z,1.57
2022-09-10T12:54:49.008Z,1.47
2022-09-10T12:57:31.416Z,1.82
2022-09-10T13:00:23.431Z,1.35
2022-09-10T13:02:59.232Z,1.90
2022-09-10T13:05:36.775Z,2.20
2022-09-10T13:08:14.819Z,2.30
2022-09-10T13:10:51.024Z,2.67
2022-09-10T13:13:34.304Z,2.30
2022-09-10T13:16:10.490Z,2.20
2022-09-10T13:18:44.279Z,2.73
2022-09-10T13:21:54.074Z,2.20
2022-09-10T13:24:42.639Z,2.08
2022-09-10T13:27:25.458Z,2.37
2022-09-10T13:30:02.906Z,1.95
2022-09-10T13:32:39.433Z,2.40
2022-09-10T13:35:24.687Z,1.95
2022-09-10T13:38:40.658Z,1.80
2022-09-10T13:41:28.061Z,2.12
2022-09-10T13:44:25.823Z,2.00
2022-09-10T13:47:01.139Z,2.27
2022-09-10T13:49:39.291Z,2.65
2022-09-10T13:52:15.598Z,7.90
2022-09-10T13:54:53.581Z,8.15
2022-09-10T13:57:31.094Z,2.42
2022-09-10T14:00:08.870Z,2.52
2022-09-10T14:02:45.519Z,1.90
2022-09-10T14:05:34.046Z,2.05
2022-09-10T14:08:11.568Z,2.40
2022-09-10T14:10:58.148Z,2.25
2022-09-10T14:13:35.909Z,1.80
2022-09-10T14:16:16.149Z,1.87
2022-09-10T14:18:58.919Z,2.00
2022-09-10T14:21:39.751Z,1.92
2022-09-10T14:24:29.362Z,1.77
2022-09-10T14:27:18.808Z,1.60
2022-09-10T14:29:53.597Z,2.45
2022-09-10T14:32:32.967Z,2.40
2022-09-10T14:35:40.067Z,2.75
2022-09-10T14:38:42.983Z,2.25
2022-09-10T14:41:25.023Z,1.80
2022-09-10T14:44:30.696Z,1.70
2022-09-10T14:47:18.073Z,4.42
2022-09-10T14:49:52.801Z,2.20
2022-09-10T14:52:26.546Z,1.95
2022-09-10T14:55:00.513Z,1.60
2022-09-10T14:57:34.401Z,1.67
2022-09-10T15:00:13.121Z,2.25
2022-09-10T15:02:46.425Z,2.87
2022-09-10T15:05:20.443Z,2.42
2022-09-10T15:07:53.806Z,2.55
2022-09-10T15:10:27.200Z,2.30
2022-09-10T15:13:01.863Z,2.02
2022-09-10T15:15:35.982Z,1.40
2022-09-10T15:18:14.104Z,1.70
2022-09-10T15:20:48.690Z,1.77
2022-09-10T15:23:23.030Z,2.15
2022-09-10T15:25:58.655Z,1.65
2022-09-10T15:28:33.065Z,1.85
2022-09-10T15:31:10.141Z,2.15
2022-09-10T15:33:44.080Z,12.28
2022-09-10T15:36:17.513Z,2.30
2022-09-10T15:38:55.350Z,3.12
2022-09-10T15:41:29.448Z,3.70
2022-09-10T15:44:05.318Z,5.90
2022-09-10T15:46:41.939Z,3.83
2022-09-10T15:49:17.565Z,2.20
2022-09-10T15:51:51.769Z,2.10
2022-09-10T15:54:26.302Z,2.35
2022-09-10T15:57:00.504Z,2.55
2022-09-10T15:59:34.025Z,3.58
2022-09-10T16:02:09.570Z,4.20
2022-09-10T16:04:43.369Z,5.25
2022-09-10T16:07:17.126Z,2.70
2022-09-10T16:09:51.020Z,2.77
2022-09-10T16:12:26.382Z,3.17
2022-09-10T16:15:01.517Z,4.03
2022-09-10T16:17:34.801Z,3.67
2022-09-10T16:20:09.987Z,2.87
2022-09-10T16:22:43.433Z,3.55
2022-09-10T16:25:17.535Z,2.95
2022-09-10T16:27:50.757Z,3.20
2022-09-10T16:30:24.320Z,3.25
2022-09-10T16:32:58.609Z,3.12
2022-09-10T16:35:33.166Z,4.22
2022-09-10T16:38:07.116Z,8.20
2022-09-10T16:40:40.570Z,6.17
2022-09-10T16:43:13.953Z,6.55
2022-09-10T16:45:53.395Z,3.90
2022-09-10T16:48:27.415Z,3.50
2022-09-10T16:51:06.672Z,3.90
2022-09-10T16:53:40.900Z,3.58
2022-09-10T16:56:16.000Z,5.47
2022-09-10T16:58:50.326Z,12.33
2022-09-10T17:01:24.142Z,5.42
2022-09-10T17:03:58.358Z,9.93
2022-09-10T17:06:32.894Z,7.03
2022-09-10T17:09:06.976Z,4.53
2022-09-10T17:11:40.688Z,7.83
2022-09-10T17:14:13.981Z,3.50
2022-09-10T17:16:48.579Z,4.45
2022-09-10T17:19:24.025Z,4.92
2022-09-10T17:21:58.315Z,4.17
2022-09-10T17:24:32.015Z,6.40
2022-09-10T17:27:06.803Z,7.37
2022-09-10T17:29:40.127Z,7.90
2022-09-10T17:32:13.506Z,5.20
2022-09-10T17:34:49.949Z,5.53
2022-09-10T17:37:24.755Z,5.12
2022-09-10T17:39:59.181Z,6.37
2022-09-10T17:42:34.608Z,5.00
2022-09-10T17:45:10.229Z,5.42
2022-09-10T17:47:44.929Z,5.15
2022-09-10T17:50:18.926Z,5.35
2022-09-10T17:52:54.239Z,7.33
2022-09-10T17:55:31.728Z,6.05
2022-09-10T17:58:03.577Z,5.60
2022-09-10T18:00:41.921Z,6.95
2022-09-10T18:03:29.500Z,7.30
2022-09-10T18:06:12.364Z,10.70
2022-09-10T18:08:46.704Z,8.85
2022-09-10T18:11:33.351Z,7.72
2022-09-10T18:14:07.317Z,10.95
2022-09-10T18:16:41.166Z,6.15
2022-09-10T18:19:17.906Z,7.55
2022-09-10T18:21:52.073Z,6.47
2022-09-10T18:24:25.904Z,5.67
2022-09-10T18:27:01.111Z,7.45
2022-09-10T18:29:35.140Z,6.85
2022-09-10T18:32:09.336Z,7.30
2022-09-10T18:34:43.121Z,6.10
2022-09-10T18:37:16.351Z,5.97
2022-09-10T18:39:50.407Z,6.25
2022-09-10T18:42:24.025Z,5.67
2022-09-10T18:44:57.468Z,6.55
2022-09-10T18:47:44.169Z,13.85
2022-09-10T18:50:06.892Z,14.18
2022-09-10T18:52:40.317Z,11.80
2022-09-10T18:55:13.975Z,12.50
2022-09-10T18:57:47.780Z,7.70
2022-09-10T19:00:25.796Z,5.92
2022-09-10T19:02:59.062Z,6.53
2022-09-10T19:05:33.831Z,7.47
2022-09-10T19:08:07.279Z,7.10
2022-09-10T19:10:41.937Z,9.85
2022-09-10T19:13:16.162Z,7.17
2022-09-10T19:15:59.577Z,6.25
2022-09-10T19:18:34.799Z,7.37
2022-09-10T19:21:08.544Z,5.53
2022-09-10T19:23:41.982Z,5.67
2022-09-10T19:26:15.746Z,6.90
2022-09-10T19:28:49.427Z,6.92
2022-09-10T19:31:23.122Z,6.78
2022-09-10T19:33:58.750Z,6.47
2022-09-10T19:36:35.426Z,7.30
2022-09-10T19:39:11.075Z,7.65
2022-09-10T19:41:46.725Z,7.15
2022-09-10T19:44:21.069Z,7.17
2022-09-10T19:46:55.435Z,6.10
2022-09-10T19:49:29.769Z,6.83
2022-09-10T19:52:04.503Z,7.12
2022-09-10T19:54:38.293Z,7.65
2022-09-10T19:57:11.685Z,8.08
2022-09-10T19:59:44.945Z,8.13
2022-09-10T20:02:19.084Z,9.15
2022-09-10T20:04:55.055Z,9.73
2022-09-10T20:07:30.259Z,9.95
2022-09-10T20:10:04.961Z,9.23
2022-09-10T20:12:38.465Z,11.63
2022-09-10T20:15:12.595Z,9.08
2022-09-10T20:17:47.801Z,10.13
2022-09-10T20:20:21.385Z,9.88
2022-09-10T20:22:57.028Z,10.55
2022-09-10T20:25:32.038Z,10.30
2022-09-10T20:28:05.586Z,10.32
2022-09-10T20:30:39.834Z,12.55
2022-09-10T20:33:13.157Z,10.43
2022-09-10T20:35:47.949Z,10.38
2022-09-10T20:38:21.847Z,10.78
2022-09-10T20:40:55.097Z,10.72
2022-09-10T20:43:28.726Z,11.05
2022-09-10T20:46:03.228Z,11.78
2022-09-10T20:48:36.657Z,10.38
2022-09-10T20:51:10.438Z,10.50
2022-09-10T20:53:44.239Z,10.40
2022-09-10T20:56:19.607Z,10.30
2022-09-10T20:58:53.113Z,10.40
2022-09-10T21:01:28.269Z,10.40
2022-09-10T21:04:04.253Z,12.18
2022-09-10T21:06:38.050Z,9.90
2022-09-10T21:09:12.157Z,9.80
2022-09-10T21:11:45.349Z,10.05
2022-09-10T21:14:19.119Z,10.32
2022-09-10T21:16:53.313Z,10.38
2022-09-10T21:19:29.832Z,10.82
2022-09-10T21:22:03.714Z,11.50
2022-09-10T21:24:38.923Z,11.78
2022-09-10T21:27:12.564Z,10.68
2022-09-10T21:29:47.274Z,10.38
2022-09-10T21:32:20.737Z,11.20
2022-09-10T21:34:54.453Z,10.65
2022-09-10T21:37:27.832Z,11.35
2022-09-10T21:40:02.319Z,11.73
2022-09-10T21:42:35.569Z,11.22
2022-09-10T21:45:12.157Z,10.88
2022-09-10T21:47:45.413Z,11.63
2022-09-10T21:50:19.254Z,11.00
2022-09-10T21:52:52.713Z,10.20
2022-09-10T21:55:26.162Z,11.38
2022-09-10T21:57:59.746Z,11.90
2022-09-10T22:00:33.245Z,12.70
2022-09-10T22:03:06.761Z,11.33
2022-09-10T22:05:40.006Z,11.30
2022-09-10T22:08:14.258Z,11.18
2022-09-10T22:10:47.987Z,11.75
2022-09-10T22:13:22.328Z,12.70
2022-09-10T22:15:57.609Z,11.90
2022-09-10T22:18:33.653Z,10.65
2022-09-10T22:21:07.378Z,11.00
2022-09-10T22:23:42.798Z,10.80
2022-09-10T22:26:19.106Z,11.00
2022-09-10T22:28:55.612Z,11.85
2022-09-10T22:31:31.717Z,10.32
2022-09-10T22:34:07.174Z,10.05
2022-09-10T22:36:42.080Z,11.60
2022-09-10T22:39:17.593Z,10.70
2022-09-10T22:41:51.804Z,11.40
2022-09-10T22:44:26.366Z,9.75
2022-09-10T22:47:00.538Z,10.88
2022-09-10T22:49:34.210Z,10.72
2022-09-10T22:52:07.802Z,10.90
2022-09-10T22:54:41.501Z,10.13
2022-09-10T22:57:15.425Z,10.58
2022-09-10T22:59:50.423Z,10.00
2022-09-10T23:02:24.075Z,10.75
2022-09-10T23:04:57.639Z,12.45
2022-09-10T23:07:31.009Z,11.73
2022-09-10T23:10:04.797Z,12.40
2022-09-10T23:12:38.886Z,12.18
2022-09-10T23:15:12.987Z,12.33
2022-09-10T23:17:46.741Z,12.50
2022-09-10T23:20:20.217Z,12.53
2022-09-10T23:22:54.022Z,12.03
2022-09-10T23:25:27.806Z,11.68
2022-09-10T23:28:05.462Z,13.10
2022-09-10T23:30:36.849Z,12.10
2022-09-10T23:33:10.461Z,12.60
2022-09-10T23:35:51.480Z,12.23
2022-09-10T23:38:25.038Z,14.53
2022-09-10T23:40:59.479Z,15.53
2022-09-10T23:43:33.290Z,13.80
2022-09-10T23:46:07.758Z,14.15
2022-09-10T23:48:42.572Z,14.68
2022-09-10T23:51:17.531Z,15.00
2022-09-10T23:53:51.688Z,15.95
2022-09-10T23:56:27.039Z,15.63
2022-09-10T23:59:00.934Z,15.30
